sensor_id;sensor_type;location;lat;lon;timestamp;pressure;altitude;pressure_sealevel;temperature;humidity
57821;BME280;43649;49.474;8.466;2022-07-23T00:01:48;100251.53;;;24.51;55.93
57821;BME280;43649;49.474;8.466;2022-07-23T00:04:15;100265.41;;;24.45;56.52
57821;BME280;43649;49.474;8.466;2022-07-23T00:06:41;100259.31;;;24.43;56.63
57821;BME280;43649;49.474;8.466;2022-07-23T00:09:06;100273.78;;;24.38;58.68
57821;BME280;43649;49.474;8.466;2022-07-23T00:11:31;100292.22;;;24.49;58.07
57821;BME280;43649;49.474;8.466;2022-07-23T00:13:57;100278.22;;;24.27;57.41
57821;BME280;43649;49.474;8.466;2022-07-23T00:16:23;100264.91;;;24.12;57.25
57821;BME280;43649;49.474;8.466;2022-07-23T00:18:48;100225.50;;;24.00;57.42
57821;BME280;43649;49.474;8.466;2022-07-23T00:21:15;100249.81;;;24.27;56.93
57821;BME280;43649;49.474;8.466;2022-07-23T00:23:40;100233.16;;;24.10;57.45
57821;BME280;43649;49.474;8.466;2022-07-23T00:26:06;100228.88;;;24.14;57.55
57821;BME280;43649;49.474;8.466;2022-07-23T00:28:31;100198.03;;;23.81;57.09
57821;BME280;43649;49.474;8.466;2022-07-23T00:30:57;100252.56;;;24.03;57.22
57821;BME280;43649;49.474;8.466;2022-07-23T00:33:22;100245.56;;;23.89;57.42
57821;BME280;43649;49.474;8.466;2022-07-23T00:35:48;100251.56;;;23.85;57.67
57821;BME280;43649;49.474;8.466;2022-07-23T00:38:14;100246.50;;;23.82;57.59
57821;BME280;43649;49.474;8.466;2022-07-23T00:40:40;100234.16;;;23.73;57.90
57821;BME280;43649;49.474;8.466;2022-07-23T00:43:06;100230.81;;;23.71;57.84
57821;BME280;43649;49.474;8.466;2022-07-23T00:45:32;100235.84;;;23.74;57.93
57821;BME280;43649;49.474;8.466;2022-07-23T00:47:58;100217.69;;;23.43;58.46
57821;BME280;43649;49.474;8.466;2022-07-23T00:50:24;100248.63;;;23.68;58.34
57821;BME280;43649;49.474;8.466;2022-07-23T00:52:49;100244.00;;;23.50;59.06
57821;BME280;43649;49.474;8.466;2022-07-23T00:55:16;100249.97;;;23.47;59.22
57821;BME280;43649;49.474;8.466;2022-07-23T00:57:42;100254.06;;;23.57;59.05
57821;BME280;43649;49.474;8.466;2022-07-23T01:00:11;100233.13;;;23.56;58.66
57821;BME280;43649;49.474;8.466;2022-07-23T01:02:37;100259.34;;;23.58;58.81
57821;BME280;43649;49.474;8.466;2022-07-23T01:05:03;100256.00;;;23.56;59.05
57821;BME280;43649;49.474;8.466;2022-07-23T01:07:29;100220.19;;;23.14;59.55
57821;BME280;43649;49.474;8.466;2022-07-23T01:09:55;100269.91;;;23.43;59.58
57821;BME280;43649;49.474;8.466;2022-07-23T01:12:22;100274.31;;;23.44;59.79
57821;BME280;43649;49.474;8.466;2022-07-23T01:14:53;100277.47;;;23.47;59.85
57821;BME280;43649;49.474;8.466;2022-07-23T01:17:19;100275.72;;;23.53;60.16
57821;BME280;43649;49.474;8.466;2022-07-23T01:19:45;100268.13;;;23.48;60.46
57821;BME280;43649;49.474;8.466;2022-07-23T01:22:10;100264.19;;;23.44;60.36
57821;BME280;43649;49.474;8.466;2022-07-23T01:24:37;100265.00;;;23.45;60.26
57821;BME280;43649;49.474;8.466;2022-07-23T01:27:05;100261.44;;;23.44;59.81
57821;BME280;43649;49.474;8.466;2022-07-23T01:29:33;100249.91;;;23.36;60.13
57821;BME280;43649;49.474;8.466;2022-07-23T01:32:02;100246.56;;;23.33;59.74
57821;BME280;43649;49.474;8.466;2022-07-23T01:34:28;100244.06;;;23.32;59.58
57821;BME280;43649;49.474;8.466;2022-07-23T01:36:54;100245.72;;;23.33;59.53
57821;BME280;43649;49.474;8.466;2022-07-23T01:39:19;100252.91;;;23.34;59.20
57821;BME280;43649;49.474;8.466;2022-07-23T01:41:46;100256.25;;;23.36;59.27
57821;BME280;43649;49.474;8.466;2022-07-23T01:44:13;100255.34;;;23.24;59.66
57821;BME280;43649;49.474;8.466;2022-07-23T01:46:39;100250.91;;;23.23;59.91
57821;BME280;43649;49.474;8.466;2022-07-23T01:49:05;100259.13;;;23.11;60.25
57821;BME280;43649;49.474;8.466;2022-07-23T01:52:03;100262.47;;;23.13;60.42
57821;BME280;43649;49.474;8.466;2022-07-23T01:54:35;100259.59;;;23.01;60.67
57821;BME280;43649;49.474;8.466;2022-07-23T01:57:05;100253.81;;;22.91;61.07
57821;BME280;43649;49.474;8.466;2022-07-23T01:59:31;100243.59;;;22.79;61.19
57821;BME280;43649;49.474;8.466;2022-07-23T02:01:57;100235.19;;;22.93;61.32
57821;BME280;43649;49.474;8.466;2022-07-23T02:04:24;100248.63;;;23.01;61.10
57821;BME280;43649;49.474;8.466;2022-07-23T02:06:50;100251.06;;;22.91;61.18
57821;BME280;43649;49.474;8.466;2022-07-23T02:09:16;100247.94;;;22.87;61.22
57821;BME280;43649;49.474;8.466;2022-07-23T02:11:42;100246.78;;;22.95;60.97
57821;BME280;43649;49.474;8.466;2022-07-23T02:14:09;100262.50;;;23.06;60.59
57821;BME280;43649;49.474;8.466;2022-07-23T02:16:35;100259.31;;;22.91;61.06
57821;BME280;43649;49.474;8.466;2022-07-23T02:19:01;100247.03;;;22.75;62.04
57821;BME280;43649;49.474;8.466;2022-07-23T02:21:27;100244.66;;;22.78;61.72
57821;BME280;43649;49.474;8.466;2022-07-23T02:23:52;100259.31;;;22.91;61.76
57821;BME280;43649;49.474;8.466;2022-07-23T02:26:18;100255.63;;;22.78;62.32
57821;BME280;43649;49.474;8.466;2022-07-23T02:28:45;100250.75;;;22.80;62.54
57821;BME280;43649;49.474;8.466;2022-07-23T02:31:12;100260.81;;;22.68;62.82
57821;BME280;43649;49.474;8.466;2022-07-23T02:33:37;100262.09;;;22.66;63.06
57821;BME280;43649;49.474;8.466;2022-07-23T02:36:03;100258.53;;;22.65;63.08
57821;BME280;43649;49.474;8.466;2022-07-23T02:38:28;100252.28;;;22.76;62.92
57821;BME280;43649;49.474;8.466;2022-07-23T02:40:55;100255.41;;;22.61;63.50
57821;BME280;43649;49.474;8.466;2022-07-23T02:43:20;100249.22;;;22.66;63.61
57821;BME280;43649;49.474;8.466;2022-07-23T02:45:46;100242.19;;;22.52;64.02
57821;BME280;43649;49.474;8.466;2022-07-23T02:48:13;100246.00;;;22.51;64.08
57821;BME280;43649;49.474;8.466;2022-07-23T02:50:38;100250.50;;;22.63;63.59
57821;BME280;43649;49.474;8.466;2022-07-23T02:53:05;100264.47;;;22.62;63.95
57821;BME280;43649;49.474;8.466;2022-07-23T02:55:32;100264.00;;;22.65;63.74
57821;BME280;43649;49.474;8.466;2022-07-23T02:58:00;100248.53;;;22.52;63.94
57821;BME280;43649;49.474;8.466;2022-07-23T03:00:27;100264.78;;;22.72;63.61
57821;BME280;43649;49.474;8.466;2022-07-23T03:02:52;100283.19;;;22.72;63.44
57821;BME280;43649;49.474;8.466;2022-07-23T03:05:19;100295.50;;;22.62;64.25
57821;BME280;43649;49.474;8.466;2022-07-23T03:07:44;100323.88;;;22.56;65.03
57821;BME280;43649;49.474;8.466;2022-07-23T03:10:10;100342.88;;;22.58;65.25
57821;BME280;43649;49.474;8.466;2022-07-23T03:12:35;100351.34;;;22.56;65.10
57821;BME280;43649;49.474;8.466;2022-07-23T03:15:02;100327.59;;;22.43;65.13
57821;BME280;43649;49.474;8.466;2022-07-23T03:17:28;100323.16;;;22.42;65.50
57821;BME280;43649;49.474;8.466;2022-07-23T03:19:53;100335.09;;;22.55;65.15
57821;BME280;43649;49.474;8.466;2022-07-23T03:22:20;100333.44;;;22.54;65.04
57821;BME280;43649;49.474;8.466;2022-07-23T03:24:47;100327.75;;;22.49;65.36
57821;BME280;43649;49.474;8.466;2022-07-23T03:27:13;100320.03;;;22.39;65.81
57821;BME280;43649;49.474;8.466;2022-07-23T03:29:39;100325.75;;;22.37;65.46
57821;BME280;43649;49.474;8.466;2022-07-23T03:32:05;100332.44;;;22.41;66.20
57821;BME280;43649;49.474;8.466;2022-07-23T03:34:30;100323.00;;;22.37;66.03
57821;BME280;43649;49.474;8.466;2022-07-23T03:36:56;100331.47;;;22.29;66.75
57821;BME280;43649;49.474;8.466;2022-07-23T03:39:23;100327.91;;;22.22;66.81
57821;BME280;43649;49.474;8.466;2022-07-23T03:41:48;100332.13;;;22.31;66.68
57821;BME280;43649;49.474;8.466;2022-07-23T03:44:14;100308.72;;;22.22;66.66
57821;BME280;43649;49.474;8.466;2022-07-23T03:46:41;100304.91;;;22.23;66.43
57821;BME280;43649;49.474;8.466;2022-07-23T03:49:06;100319.53;;;22.17;67.26
57821;BME280;43649;49.474;8.466;2022-07-23T03:51:33;100299.66;;;22.21;67.45
57821;BME280;43649;49.474;8.466;2022-07-23T03:53:59;100307.63;;;22.30;66.92
57821;BME280;43649;49.474;8.466;2022-07-23T03:56:26;100301.50;;;22.27;66.59
57821;BME280;43649;49.474;8.466;2022-07-23T03:58:51;100292.88;;;22.24;66.44
57821;BME280;43649;49.474;8.466;2022-07-23T04:01:17;100338.50;;;22.18;67.42
57821;BME280;43649;49.474;8.466;2022-07-23T04:03:42;100344.16;;;22.23;68.51
57821;BME280;43649;49.474;8.466;2022-07-23T04:06:08;100313.94;;;22.30;70.65
57821;BME280;43649;49.474;8.466;2022-07-23T04:08:35;100332.97;;;22.32;69.41
57821;BME280;43649;49.474;8.466;2022-07-23T04:11:02;100349.72;;;22.17;70.48
57821;BME280;43649;49.474;8.466;2022-07-23T04:13:29;100348.03;;;22.48;69.44
57821;BME280;43649;49.474;8.466;2022-07-23T04:15:55;100367.44;;;22.21;69.66
57821;BME280;43649;49.474;8.466;2022-07-23T04:18:20;100376.13;;;22.11;72.32
57821;BME280;43649;49.474;8.466;2022-07-23T04:20:53;100380.78;;;22.10;73.28
57821;BME280;43649;49.474;8.466;2022-07-23T04:23:19;100382.06;;;21.69;73.42
57821;BME280;43649;49.474;8.466;2022-07-23T04:25:45;100399.97;;;21.72;74.00
57821;BME280;43649;49.474;8.466;2022-07-23T04:28:10;100402.84;;;21.90;72.75
57821;BME280;43649;49.474;8.466;2022-07-23T04:30:38;100405.59;;;21.90;72.97
57821;BME280;43649;49.474;8.466;2022-07-23T04:33:05;100404.28;;;21.93;72.00
57821;BME280;43649;49.474;8.466;2022-07-23T04:35:31;100417.19;;;21.86;72.00
57821;BME280;43649;49.474;8.466;2022-07-23T04:38:07;100409.88;;;21.66;72.47
57821;BME280;43649;49.474;8.466;2022-07-23T04:40:32;100412.00;;;21.71;74.12
57821;BME280;43649;49.474;8.466;2022-07-23T04:42:58;100409.72;;;21.48;75.84
57821;BME280;43649;49.474;8.466;2022-07-23T04:45:24;100421.16;;;21.38;77.85
57821;BME280;43649;49.474;8.466;2022-07-23T04:47:51;100409.81;;;21.08;79.53
57821;BME280;43649;49.474;8.466;2022-07-23T04:50:17;100429.22;;;20.93;79.28
57821;BME280;43649;49.474;8.466;2022-07-23T04:52:43;100422.03;;;20.85;81.92
57821;BME280;43649;49.474;8.466;2022-07-23T04:55:08;100405.16;;;20.48;87.33
57821;BME280;43649;49.474;8.466;2022-07-23T04:57:34;100417.56;;;20.37;88.21
57821;BME280;43649;49.474;8.466;2022-07-23T04:59:59;100430.84;;;20.47;93.07
57821;BME280;43649;49.474;8.466;2022-07-23T05:02:25;100427.41;;;20.25;89.72
57821;BME280;43649;49.474;8.466;2022-07-23T05:04:52;100459.25;;;20.32;90.36
57821;BME280;43649;49.474;8.466;2022-07-23T05:07:18;100451.88;;;20.33;90.49
57821;BME280;43649;49.474;8.466;2022-07-23T05:09:43;100437.75;;;20.29;91.48
57821;BME280;43649;49.474;8.466;2022-07-23T05:12:09;100440.88;;;20.13;89.76
57821;BME280;43649;49.474;8.466;2022-07-23T05:14:34;100448.25;;;20.19;89.42
57821;BME280;43649;49.474;8.466;2022-07-23T05:17:00;100452.38;;;20.02;89.87
57821;BME280;43649;49.474;8.466;2022-07-23T05:19:26;100458.91;;;20.01;89.51
57821;BME280;43649;49.474;8.466;2022-07-23T05:21:54;100439.91;;;19.86;94.08
57821;BME280;43649;49.474;8.466;2022-07-23T05:24:20;100426.00;;;19.80;93.45
57821;BME280;43649;49.474;8.466;2022-07-23T05:26:46;100442.47;;;19.94;93.55
57821;BME280;43649;49.474;8.466;2022-07-23T05:29:11;100438.50;;;19.96;95.23
57821;BME280;43649;49.474;8.466;2022-07-23T05:31:37;100428.59;;;20.02;96.39
57821;BME280;43649;49.474;8.466;2022-07-23T05:34:02;100431.13;;;20.04;96.74
57821;BME280;43649;49.474;8.466;2022-07-23T05:36:28;100427.81;;;20.08;94.83
57821;BME280;43649;49.474;8.466;2022-07-23T05:38:58;100385.25;;;19.92;94.19
57821;BME280;43649;49.474;8.466;2022-07-23T05:41:27;100407.81;;;20.08;96.43
57821;BME280;43649;49.474;8.466;2022-07-23T05:43:52;100402.38;;;20.21;96.78
57821;BME280;43649;49.474;8.466;2022-07-23T05:46:18;100420.47;;;20.22;95.99
57821;BME280;43649;49.474;8.466;2022-07-23T05:48:48;100404.25;;;20.14;94.97
57821;BME280;43649;49.474;8.466;2022-07-23T05:51:37;100402.94;;;19.96;91.93
57821;BME280;43649;49.474;8.466;2022-07-23T05:54:04;100424.41;;;20.06;93.47
57821;BME280;43649;49.474;8.466;2022-07-23T05:56:34;100426.38;;;20.19;94.63
57821;BME280;43649;49.474;8.466;2022-07-23T05:58:59;100424.25;;;20.14;94.78
57821;BME280;43649;49.474;8.466;2022-07-23T06:01:25;100424.88;;;20.16;95.09
57821;BME280;43649;49.474;8.466;2022-07-23T06:04:01;100418.38;;;20.18;93.91
57821;BME280;43649;49.474;8.466;2022-07-23T06:06:32;100432.91;;;20.38;93.03
57821;BME280;43649;49.474;8.466;2022-07-23T06:08:58;100430.56;;;20.22;94.25
57821;BME280;43649;49.474;8.466;2022-07-23T06:11:25;100441.16;;;20.45;92.58
57821;BME280;43649;49.474;8.466;2022-07-23T06:13:51;100465.16;;;20.49;92.03
57821;BME280;43649;49.474;8.466;2022-07-23T06:16:18;100478.00;;;20.62;91.20
57821;BME280;43649;49.474;8.466;2022-07-23T06:18:44;100478.44;;;20.52;91.70
57821;BME280;43649;49.474;8.466;2022-07-23T06:21:10;100478.84;;;20.49;91.31
57821;BME280;43649;49.474;8.466;2022-07-23T06:23:35;100474.63;;;20.47;90.70
57821;BME280;43649;49.474;8.466;2022-07-23T06:26:01;100495.28;;;20.49;90.90
57821;BME280;43649;49.474;8.466;2022-07-23T06:28:33;100510.03;;;20.55;90.36
57821;BME280;43649;49.474;8.466;2022-07-23T06:30:59;100490.22;;;20.53;91.61
57821;BME280;43649;49.474;8.466;2022-07-23T06:33:24;100494.91;;;20.66;88.17
57821;BME280;43649;49.474;8.466;2022-07-23T06:35:50;100494.66;;;20.54;88.62
57821;BME280;43649;49.474;8.466;2022-07-23T06:38:15;100508.97;;;20.56;89.89
57821;BME280;43649;49.474;8.466;2022-07-23T06:40:41;100503.50;;;20.56;90.65
57821;BME280;43649;49.474;8.466;2022-07-23T06:43:06;100508.13;;;20.62;88.40
57821;BME280;43649;49.474;8.466;2022-07-23T06:45:37;100483.09;;;20.65;88.67
57821;BME280;43649;49.474;8.466;2022-07-23T06:48:03;100475.13;;;20.71;88.89
57821;BME280;43649;49.474;8.466;2022-07-23T06:50:29;100475.50;;;20.54;90.97
57821;BME280;43649;49.474;8.466;2022-07-23T06:52:55;100479.56;;;20.72;89.17
57821;BME280;43649;49.474;8.466;2022-07-23T06:55:20;100467.91;;;20.49;90.20
57821;BME280;43649;49.474;8.466;2022-07-23T06:57:46;100467.25;;;20.41;92.38
57821;BME280;43649;49.474;8.466;2022-07-23T07:00:12;100474.22;;;20.63;90.52
57821;BME280;43649;49.474;8.466;2022-07-23T07:02:39;100470.69;;;20.69;90.06
57821;BME280;43649;49.474;8.466;2022-07-23T07:05:05;100462.09;;;20.79;89.54
57821;BME280;43649;49.474;8.466;2022-07-23T07:07:31;100471.34;;;20.92;88.93
57821;BME280;43649;49.474;8.466;2022-07-23T07:09:56;100448.81;;;20.76;87.24
57821;BME280;43649;49.474;8.466;2022-07-23T07:12:22;100491.56;;;21.04;86.63
57821;BME280;43649;49.474;8.466;2022-07-23T07:14:47;100478.94;;;20.90;85.54
57821;BME280;43649;49.474;8.466;2022-07-23T07:17:13;100504.22;;;21.12;86.48
57821;BME280;43649;49.474;8.466;2022-07-23T07:19:43;100481.44;;;21.04;87.36
57821;BME280;43649;49.474;8.466;2022-07-23T07:22:14;100482.28;;;20.98;88.18
57821;BME280;43649;49.474;8.466;2022-07-23T07:24:42;100525.28;;;21.18;87.23
57821;BME280;43649;49.474;8.466;2022-07-23T07:27:11;100488.81;;;21.24;85.79
57821;BME280;43649;49.474;8.466;2022-07-23T07:29:37;100487.75;;;21.38;84.32
57821;BME280;43649;49.474;8.466;2022-07-23T07:32:04;100516.16;;;21.84;83.80
57821;BME280;43649;49.474;8.466;2022-07-23T07:34:30;100520.97;;;22.02;80.82
57821;BME280;43649;49.474;8.466;2022-07-23T07:36:56;100533.75;;;22.28;81.15
57821;BME280;43649;49.474;8.466;2022-07-23T07:39:25;100542.59;;;22.31;81.90
57821;BME280;43649;49.474;8.466;2022-07-23T07:41:50;100509.97;;;22.09;81.29
57821;BME280;43649;49.474;8.466;2022-07-23T07:44:16;100533.34;;;22.32;78.83
57821;BME280;43649;49.474;8.466;2022-07-23T07:46:42;100523.91;;;22.07;76.55
57821;BME280;43649;49.474;8.466;2022-07-23T07:49:07;100537.59;;;22.14;74.72
57821;BME280;43649;49.474;8.466;2022-07-23T07:51:33;100536.06;;;22.38;74.61
57821;BME280;43649;49.474;8.466;2022-07-23T07:54:01;100535.22;;;22.38;73.76
57821;BME280;43649;49.474;8.466;2022-07-23T07:56:26;100534.50;;;22.49;74.20
57821;BME280;43649;49.474;8.466;2022-07-23T07:58:52;100556.97;;;22.78;74.74
57821;BME280;43649;49.474;8.466;2022-07-23T08:01:17;100555.91;;;22.79;72.13
57821;BME280;43649;49.474;8.466;2022-07-23T08:03:43;100550.59;;;22.84;75.75
57821;BME280;43649;49.474;8.466;2022-07-23T08:06:08;100553.97;;;22.86;74.74
57821;BME280;43649;49.474;8.466;2022-07-23T08:08:34;100561.16;;;22.87;74.74
57821;BME280;43649;49.474;8.466;2022-07-23T08:11:01;100540.66;;;22.83;73.71
57821;BME280;43649;49.474;8.466;2022-07-23T08:13:26;100526.63;;;22.66;73.64
57821;BME280;43649;49.474;8.466;2022-07-23T08:15:51;100525.13;;;22.32;73.07
57821;BME280;43649;49.474;8.466;2022-07-23T08:18:17;100529.84;;;22.56;72.66
57821;BME280;43649;49.474;8.466;2022-07-23T08:20:42;100562.56;;;22.65;73.70
57821;BME280;43649;49.474;8.466;2022-07-23T08:23:08;100560.38;;;22.73;71.68
57821;BME280;43649;49.474;8.466;2022-07-23T08:25:37;100529.63;;;22.58;71.33
57821;BME280;43649;49.474;8.466;2022-07-23T08:28:06;100556.13;;;22.77;72.21
57821;BME280;43649;49.474;8.466;2022-07-23T08:30:32;100568.31;;;22.88;71.17
57821;BME280;43649;49.474;8.466;2022-07-23T08:32:59;100542.13;;;22.86;72.34
57821;BME280;43649;49.474;8.466;2022-07-23T08:35:27;100531.41;;;22.77;72.41
57821;BME280;43649;49.474;8.466;2022-07-23T08:37:53;100542.97;;;22.86;71.83
57821;BME280;43649;49.474;8.466;2022-07-23T08:40:19;100530.41;;;22.72;71.10
57821;BME280;43649;49.474;8.466;2022-07-23T08:42:47;100542.38;;;22.77;70.32
57821;BME280;43649;49.474;8.466;2022-07-23T08:45:16;100546.44;;;22.75;71.85
57821;BME280;43649;49.474;8.466;2022-07-23T08:47:42;100550.59;;;22.84;70.94
57821;BME280;43649;49.474;8.466;2022-07-23T08:50:10;100558.53;;;22.99;70.05
57821;BME280;43649;49.474;8.466;2022-07-23T08:52:36;100571.13;;;23.13;71.02
57821;BME280;43649;49.474;8.466;2022-07-23T08:55:03;100544.34;;;23.02;71.30
57821;BME280;43649;49.474;8.466;2022-07-23T08:57:28;100552.53;;;23.09;70.08
57821;BME280;43649;49.474;8.466;2022-07-23T08:59:54;100578.38;;;23.33;71.42
57821;BME280;43649;49.474;8.466;2022-07-23T09:02:21;100569.31;;;23.32;70.70
57821;BME280;43649;49.474;8.466;2022-07-23T09:04:47;100583.78;;;23.46;69.80
57821;BME280;43649;49.474;8.466;2022-07-23T09:07:13;100577.22;;;23.47;69.70
57821;BME280;43649;49.474;8.466;2022-07-23T09:09:38;100576.31;;;23.54;70.38
57821;BME280;43649;49.474;8.466;2022-07-23T09:12:05;100581.47;;;23.43;68.30
57821;BME280;43649;49.474;8.466;2022-07-23T09:14:39;100575.25;;;23.29;70.25
57821;BME280;43649;49.474;8.466;2022-07-23T09:17:09;100579.13;;;23.22;70.38
57821;BME280;43649;49.474;8.466;2022-07-23T09:19:36;100565.09;;;23.30;70.40
57821;BME280;43649;49.474;8.466;2022-07-23T09:22:16;100551.88;;;23.13;70.57
57821;BME280;43649;49.474;8.466;2022-07-23T09:25:03;100560.56;;;23.17;69.57
57821;BME280;43649;49.474;8.466;2022-07-23T09:27:46;100563.22;;;23.24;69.59
57821;BME280;43649;49.474;8.466;2022-07-23T09:30:12;100552.69;;;23.21;70.70
57821;BME280;43649;49.474;8.466;2022-07-23T09:32:37;100569.31;;;23.32;70.55
57821;BME280;43649;49.474;8.466;2022-07-23T09:35:05;100569.53;;;23.56;69.60
57821;BME280;43649;49.474;8.466;2022-07-23T09:37:31;100558.00;;;23.66;69.92
57821;BME280;43649;49.474;8.466;2022-07-23T09:40:04;100565.38;;;23.91;68.15
57821;BME280;43649;49.474;8.466;2022-07-23T09:42:30;100565.41;;;24.09;67.57
57821;BME280;43649;49.474;8.466;2022-07-23T09:44:57;100553.94;;;24.12;67.57
57821;BME280;43649;49.474;8.466;2022-07-23T09:47:25;100576.56;;;24.14;68.48
57821;BME280;43649;49.474;8.466;2022-07-23T09:49:58;100575.75;;;24.14;67.61
57821;BME280;43649;49.474;8.466;2022-07-23T09:52:29;100571.84;;;24.21;67.42
57821;BME280;43649;49.474;8.466;2022-07-23T09:54:59;100567.56;;;24.26;66.86
57821;BME280;43649;49.474;8.466;2022-07-23T09:57:26;100569.97;;;24.34;66.13
57821;BME280;43649;49.474;8.466;2022-07-23T09:59:51;100577.03;;;24.48;65.54
57821;BME280;43649;49.474;8.466;2022-07-23T10:02:18;100571.66;;;24.53;66.07
57821;BME280;43649;49.474;8.466;2022-07-23T10:05:05;100568.22;;;24.58;65.30
57821;BME280;43649;49.474;8.466;2022-07-23T10:07:55;100570.66;;;24.66;65.39
57821;BME280;43649;49.474;8.466;2022-07-23T10:10:53;100561.31;;;24.67;64.60
57821;BME280;43649;49.474;8.466;2022-07-23T10:13:42;100577.13;;;24.72;65.18
57821;BME280;43649;49.474;8.466;2022-07-23T10:16:08;100562.75;;;24.70;65.08
57821;BME280;43649;49.474;8.466;2022-07-23T10:18:34;100531.19;;;24.54;63.88
57821;BME280;43649;49.474;8.466;2022-07-23T10:21:00;100542.13;;;24.61;64.17
57821;BME280;43649;49.474;8.466;2022-07-23T10:23:35;100549.00;;;24.70;64.43
57821;BME280;43649;49.474;8.466;2022-07-23T10:26:09;100535.13;;;24.77;64.28
57821;BME280;43649;49.474;8.466;2022-07-23T10:29:01;100557.69;;;24.97;64.29
57821;BME280;43649;49.474;8.466;2022-07-23T10:31:37;100557.69;;;24.97;63.53
57821;BME280;43649;49.474;8.466;2022-07-23T10:34:13;100558.28;;;24.87;64.53
57821;BME280;43649;49.474;8.466;2022-07-23T10:36:44;100549.91;;;24.94;62.82
57821;BME280;43649;49.474;8.466;2022-07-23T10:39:18;100532.13;;;24.78;62.55
57821;BME280;43649;49.474;8.466;2022-07-23T10:41:44;100546.19;;;25.00;62.32
57821;BME280;43649;49.474;8.466;2022-07-23T10:44:11;100555.19;;;24.96;61.45
57821;BME280;43649;49.474;8.466;2022-07-23T10:46:56;100553.28;;;24.96;61.65
57821;BME280;43649;49.474;8.466;2022-07-23T10:49:24;100549.59;;;25.02;62.36
57821;BME280;43649;49.474;8.466;2022-07-23T10:52:15;100558.13;;;25.24;61.84
57821;BME280;43649;49.474;8.466;2022-07-23T10:54:43;100537.88;;;25.19;61.35
57821;BME280;43649;49.474;8.466;2022-07-23T10:57:10;100558.31;;;25.41;61.07
57821;BME280;43649;49.474;8.466;2022-07-23T11:02:40;100546.31;;;25.48;60.83
57821;BME280;43649;49.474;8.466;2022-07-23T11:05:08;100542.69;;;25.47;60.62
57821;BME280;43649;49.474;8.466;2022-07-23T11:07:34;100545.34;;;25.42;60.14
57821;BME280;43649;49.474;8.466;2022-07-23T11:10:02;100551.81;;;25.36;60.43
57821;BME280;43649;49.474;8.466;2022-07-23T11:12:33;100566.34;;;25.67;59.45
57821;BME280;43649;49.474;8.466;2022-07-23T11:14:59;100543.66;;;25.65;60.69
57821;BME280;43649;49.474;8.466;2022-07-23T11:17:25;100555.44;;;25.72;59.48
57821;BME280;43649;49.474;8.466;2022-07-23T11:20:19;100556.84;;;25.86;59.42
57821;BME280;43649;49.474;8.466;2022-07-23T11:22:50;100546.91;;;25.85;58.52
57821;BME280;43649;49.474;8.466;2022-07-23T11:25:33;100556.88;;;25.74;58.69
57821;BME280;43649;49.474;8.466;2022-07-23T11:28:10;100553.16;;;25.81;58.97
57821;BME280;43649;49.474;8.466;2022-07-23T11:30:41;100546.53;;;25.93;57.35
57821;BME280;43649;49.474;8.466;2022-07-23T11:33:19;100530.44;;;25.90;56.72
57821;BME280;43649;49.474;8.466;2022-07-23T11:35:46;100547.09;;;26.19;57.60
57821;BME280;43649;49.474;8.466;2022-07-23T11:38:14;100537.97;;;26.30;57.30
57821;BME280;43649;49.474;8.466;2022-07-23T11:40:44;100536.03;;;26.31;55.74
57821;BME280;43649;49.474;8.466;2022-07-23T11:43:11;100538.84;;;26.48;55.60
57821;BME280;43649;49.474;8.466;2022-07-23T11:45:38;100517.88;;;26.35;55.26
57821;BME280;43649;49.474;8.466;2022-07-23T11:48:06;100518.22;;;26.39;54.93
57821;BME280;43649;49.474;8.466;2022-07-23T11:50:32;100511.03;;;26.38;55.63
57821;BME280;43649;49.474;8.466;2022-07-23T11:52:57;100511.66;;;26.57;55.08
57821;BME280;43649;49.474;8.466;2022-07-23T11:55:24;100515.16;;;26.52;53.95
57821;BME280;43649;49.474;8.466;2022-07-23T11:57:52;100533.44;;;26.53;54.69
57821;BME280;43649;49.474;8.466;2022-07-23T12:00:20;100533.94;;;26.50;53.55
57821;BME280;43649;49.474;8.466;2022-07-23T12:02:47;100516.25;;;26.51;53.80
57821;BME280;43649;49.474;8.466;2022-07-23T12:08:41;100514.38;;;26.40;54.86
57821;BME280;43649;49.474;8.466;2022-07-23T12:14:24;100506.00;;;26.35;53.24
57821;BME280;43649;49.474;8.466;2022-07-23T12:17:08;100518.97;;;26.34;54.41
57821;BME280;43649;49.474;8.466;2022-07-23T12:19:34;100487.69;;;26.17;53.65
57821;BME280;43649;49.474;8.466;2022-07-23T12:22:00;100485.78;;;26.05;54.28
57821;BME280;43649;49.474;8.466;2022-07-23T12:24:26;100519.97;;;26.16;54.02
57821;BME280;43649;49.474;8.466;2022-07-23T12:27:10;100524.88;;;26.26;54.85
57821;BME280;43649;49.474;8.466;2022-07-23T12:30:14;100493.34;;;25.86;57.06
57821;BME280;43649;49.474;8.466;2022-07-23T12:32:42;100542.84;;;25.76;60.71
57821;BME280;43649;49.474;8.466;2022-07-23T12:35:08;100514.53;;;25.45;64.40
57821;BME280;43649;49.474;8.466;2022-07-23T12:37:36;100486.78;;;25.16;66.47
57821;BME280;43649;49.474;8.466;2022-07-23T12:40:22;100515.09;;;25.23;69.64
57821;BME280;43649;49.474;8.466;2022-07-23T12:42:49;100522.88;;;25.26;70.59
57821;BME280;43649;49.474;8.466;2022-07-23T12:45:16;100467.44;;;24.92;70.05
57821;BME280;43649;49.474;8.466;2022-07-23T12:48:04;100459.44;;;25.03;69.22
57821;BME280;43649;49.474;8.466;2022-07-23T12:50:34;100444.69;;;25.09;69.63
57821;BME280;43649;49.474;8.466;2022-07-23T12:53:04;100480.09;;;25.36;71.19
57821;BME280;43649;49.474;8.466;2022-07-23T12:55:30;100537.78;;;25.73;70.71
57821;BME280;43649;49.474;8.466;2022-07-23T12:58:03;100518.84;;;25.65;69.36
57821;BME280;43649;49.474;8.466;2022-07-23T13:00:30;100525.56;;;25.69;68.74
57821;BME280;43649;49.474;8.466;2022-07-23T13:02:55;100529.88;;;25.88;68.75
57821;BME280;43649;49.474;8.466;2022-07-23T13:05:21;100521.34;;;26.02;65.94